Terminal Aerodrome Forecast
Issued by NWS

Home | Current Version | Previous Version | Text Only | Print | Product List | Glossary On
Versions: 1 2 3 4 5 6 7 8 9 10 11 12 13 14 15
000
FTAK31 PAJN 210500
TAFASI
TAF
PASI 210538Z 2106/2206 15010KT P6SM -RA OVC030
     FM211400 VRB06KT 6SM -SHRA BR OVC030
     FM211800 12006KT P6SM VCSH OVC035=

USA.gov is the U.S. government's official web portal to all federal, state and local government web resources and services.